Time;durP1;ratioP1;P1;durP2;ratioP2;P2;SDS_P1;SDS_P2;PMS_P1;PMS_P2;Temp;Humidity;BMP_temperature;BMP_pressure;BME280_temperature;BME280_humidity;BME280_pressure;Samples;Min_cycle;Max_cycle;Signal;HPM_P1;HPM_P2
2021/06/16 00:00:22;;;;;;;18.80;7.07;;;;;;;14.71;51.23;99082.09;125693;1096;103068;-80
2021/06/16 00:03:10;;;;;;;14.47;6.23;;;;;;;14.68;51.32;99079.66;125657;1096;103164;-80
2021/06/16 00:05:43;;;;;;;16.93;6.40;;;;;;;14.65;51.42;99083.47;125697;1096;102954;-80
2021/06/16 00:08:12;;;;;;;17.20;6.23;;;;;;;14.62;51.45;99072.17;125654;1095;103019;-79
2021/06/16 00:10:40;;;;;;;17.10;6.87;;;;;;;14.58;51.50;99068.94;125694;1094;103409;-79
2021/06/16 00:13:09;;;;;;;13.23;6.10;;;;;;;14.56;51.59;99079.77;125671;1096;102945;-79
2021/06/16 00:15:42;;;;;;;17.13;6.50;;;;;;;14.51;51.63;99073.97;125716;1096;102945;-80
2021/06/16 00:18:11;;;;;;;;;;;;;;;14.47;52.13;99074.39;125703;1096;102919;-80
2021/06/16 00:20:40;;;;;;;15.57;5.80;;;;;;;14.42;51.87;99077.49;125665;1095;102994;-80
2021/06/16 00:23:09;;;;;;;16.87;6.30;;;;;;;14.41;51.74;99078.47;125689;1096;103068;-79
2021/06/16 00:25:38;;;;;;;14.50;6.20;;;;;;;14.38;51.81;99073.39;125707;1096;102923;-78
2021/06/16 00:28:08;;;;;;;15.37;6.77;;;;;;;14.35;52.02;99077.17;125666;1096;103002;-80
2021/06/16 00:30:36;;;;;;;17.43;6.90;;;;;;;14.32;52.02;99068.58;125688;1096;103007;-79
2021/06/16 00:33:05;;;;;;;17.50;6.95;;;;;;;14.17;51.97;99078.80;125648;1095;103013;-80
2021/06/16 00:35:34;;;;;;;19.27;7.77;;;;;;;14.04;52.00;99076.36;125675;1096;102937;-79
2021/06/16 00:38:03;;;;;;;20.77;8.20;;;;;;;13.98;51.98;99080.40;125668;1097;103016;-80
2021/06/16 00:40:32;;;;;;;20.63;8.27;;;;;;;13.86;51.90;99079.64;125668;1097;103043;-80
2021/06/16 00:43:01;;;;;;;19.07;8.80;;;;;;;13.71;52.37;99087.16;125692;1097;103088;-79
2021/06/16 00:45:30;;;;;;;20.53;9.80;;;;;;;13.67;52.26;99085.72;125638;1095;102989;-82
2021/06/16 00:48:00;;;;;;;23.27;9.47;;;;;;;13.69;52.42;99084.59;125719;1097;102958;-82
2021/06/16 00:50:32;;;;;;;17.23;7.37;;;;;;;13.70;52.50;99078.28;125535;1095;103003;-80
2021/06/16 00:53:01;;;;;;;17.70;8.13;;;;;;;13.73;52.59;99081.66;125612;1096;103348;-81
2021/06/16 00:55:30;;;;;;;19.00;7.80;;;;;;;13.73;52.75;99085.20;125636;1096;102947;-80
2021/06/16 00:58:00;;;;;;;17.40;7.93;;;;;;;13.74;52.76;99088.70;125565;1096;103052;-79
2021/06/16 01:00:41;;;;;;;17.47;7.30;;;;;;;13.73;52.81;99084.34;125626;1095;102972;-80
2021/06/16 01:03:25;;;;;;;17.50;7.17;;;;;;;13.73;52.78;99085.20;125639;1095;102943;-81
2021/06/16 01:06:12;;;;;;;16.37;6.67;;;;;;;13.70;53.23;99080.12;125680;1095;103019;-80
2021/06/16 01:08:50;;;;;;;16.03;6.97;;;;;;;13.68;53.05;99082.07;125656;1097;102938;-81
2021/06/16 01:11:22;;;;;;;16.97;7.57;;;;;;;13.65;53.25;99082.33;125586;1095;103076;-81
2021/06/16 01:14:09;;;;;;;18.27;7.80;;;;;;;13.63;53.28;99078.94;125698;1095;103701;-82
2021/06/16 01:16:46;;;;;;;18.33;7.80;;;;;;;13.51;53.36;99076.33;125693;1095;103013;-80
2021/06/16 01:19:45;;;;;;;17.60;7.80;;;;;;;13.42;53.06;99074.46;125513;1096;103078;-83
2021/06/16 01:22:39;;;;;;;20.70;8.40;;;;;;;13.30;53.31;99080.80;125579;1097;103010;-83
2021/06/16 01:25:18;;;;;;;19.78;8.15;;;;;;;13.22;53.83;99095.64;125620;1096;103001;-83
2021/06/16 01:27:57;;;;;;;17.75;8.20;;;;;;;13.22;53.93;99098.31;125677;1096;102920;-83
2021/06/16 01:30:30;;;;;;;20.00;8.50;;;;;;;13.23;53.83;99091.99;125677;1096;103016;-84
2021/06/16 01:33:00;;;;;;;19.47;9.23;;;;;;;13.21;53.77;99083.26;125663;1096;103068;-83
2021/06/16 01:35:30;;;;;;;20.50;9.47;;;;;;;13.08;53.82;99095.92;125687;1095;103031;-83
2021/06/16 01:38:01;;;;;;;20.87;8.67;;;;;;;13.01;54.07;99092.09;125685;1096;103183;-83
2021/06/16 01:40:33;;;;;;;20.55;9.30;;;;;;;13.03;54.31;99098.98;125661;1094;103033;-83
2021/06/16 01:43:05;;;;;;;21.53;8.83;;;;;;;13.05;54.40;99105.05;125658;1095;102997;-84
2021/06/16 01:45:38;;;;;;;26.00;10.73;;;;;;;12.85;54.55;99109.36;125687;1096;101181;-81
2021/06/16 01:48:08;;;;;;;21.63;9.30;;;;;;;12.51;54.13;99104.09;125682;1094;102948;-83
2021/06/16 01:50:37;;;;;;;23.80;11.60;;;;;;;12.29;55.09;99100.45;125565;1096;102911;-82
2021/06/16 01:53:10;;;;;;;22.10;10.60;;;;;;;12.17;55.13;99101.45;125643;1096;102946;-81
2021/06/16 01:55:39;;;;;;;22.47;10.23;;;;;;;12.07;54.96;99101.30;125601;1095;103030;-82
2021/06/16 01:58:09;;;;;;;20.47;9.20;;;;;;;12.09;55.18;99099.37;125690;1096;102991;-83
2021/06/16 02:00:41;;;;;;;22.37;10.70;;;;;;;12.19;55.05;99096.84;125692;1096;103172;-81
2021/06/16 02:03:11;;;;;;;18.57;9.20;;;;;;;12.22;55.25;99091.27;125622;1094;102920;-80
2021/06/16 02:05:41;;;;;;;20.87;10.00;;;;;;;12.28;55.37;99097.93;125635;1094;102916;-81
2021/06/16 02:08:19;;;;;;;21.07;9.83;;;;;;;12.36;55.35;99100.84;125641;1095;103018;-80
2021/06/16 02:10:51;;;;;;;19.87;9.40;;;;;;;12.41;55.49;99093.32;125716;1097;103358;-81
2021/06/16 02:13:30;;;;;;;21.77;9.40;;;;;;;12.47;55.54;99102.64;125704;1095;102941;-81
2021/06/16 02:16:04;;;;;;;20.47;9.60;;;;;;;12.49;55.73;99095.36;125665;1097;103014;-79
2021/06/16 02:18:51;;;;;;;20.03;9.80;;;;;;;12.51;55.84;99104.92;125728;1096;103068;-79
2021/06/16 02:21:20;;;;;;;21.90;10.87;;;;;;;12.51;55.77;99104.92;125715;1095;102937;-80
2021/06/16 02:23:50;;;;;;;21.93;11.30;;;;;;;12.43;55.95;99104.69;125717;1095;102942;-80
2021/06/16 02:26:21;;;;;;;19.97;10.00;;;;;;;12.26;55.83;99116.70;125673;1095;103093;-79
2021/06/16 02:28:51;;;;;;;19.78;9.33;;;;;;;12.26;56.21;99111.36;125666;1094;102998;-79
2021/06/16 02:31:21;;;;;;;21.90;9.97;;;;;;;12.27;56.16;99118.39;125694;1096;103030;-79
2021/06/16 02:33:53;;;;;;;23.37;9.63;;;;;;;12.28;56.45;99117.43;125684;1096;102936;-78
2021/06/16 02:36:24;;;;;;;22.43;9.70;;;;;;;12.32;56.44;99118.88;125693;1096;102916;-79
2021/06/16 02:38:59;;;;;;;23.57;9.33;;;;;;;12.38;56.39;99122.91;125688;1096;103010;-79
2021/06/16 02:41:29;;;;;;;20.47;9.40;;;;;;;12.41;56.51;99116.47;125654;1095;102949;-80
2021/06/16 02:43:59;;;;;;;18.80;8.47;;;;;;;12.43;56.58;99120.69;125678;1096;103023;-78
2021/06/16 02:46:32;;;;;;;19.00;9.03;;;;;;;12.45;56.65;99124.09;125685;1097;103068;-79
2021/06/16 02:49:05;;;;;;;22.90;9.70;;;;;;;12.48;56.59;99118.51;125721;1096;103001;-78
2021/06/16 02:51:39;;;;;;;21.23;9.25;;;;;;;12.48;56.69;99125.68;125687;1097;102969;-77
2021/06/16 02:54:17;;;;;;;18.67;9.00;;;;;;;12.49;56.63;99122.88;125627;1097;102938;-77
2021/06/16 02:56:47;;;;;;;17.13;8.77;;;;;;;12.52;56.81;99127.13;125694;1096;102929;-81
2021/06/16 02:59:17;;;;;;;23.13;9.37;;;;;;;12.53;56.74;99125.30;125654;1096;102914;-81
2021/06/16 03:01:47;;;;;;;22.77;10.13;;;;;;;12.54;56.91;99124.33;125714;1096;102938;-83
2021/06/16 03:04:20;;;;;;;19.40;8.93;;;;;;;12.52;56.93;99132.47;125712;1096;103364;-81
2021/06/16 03:06:52;;;;;;;19.77;9.23;;;;;;;12.46;56.68;99135.63;125670;1096;102994;-81
2021/06/16 03:09:23;;;;;;;20.63;9.00;;;;;;;12.38;56.89;99138.05;125687;1096;102997;-82
2021/06/16 03:11:54;;;;;;;21.13;9.60;;;;;;;12.40;57.05;99133.44;125687;1096;102946;-82
2021/06/16 03:14:25;;;;;;;19.73;8.73;;;;;;;12.45;57.06;99144.59;125736;1096;103012;-81
2021/06/16 03:16:54;;;;;;;19.43;8.47;;;;;;;12.41;56.96;99144.00;125698;1097;102916;-79
2021/06/16 03:19:23;;;;;;;21.07;9.53;;;;;;;12.33;57.00;99143.75;125672;1096;102980;-77
2021/06/16 03:21:56;;;;;;;18.77;8.53;;;;;;;12.24;57.17;99150.64;125685;1096;103038;-77
2021/06/16 03:24:25;;;;;;;19.13;8.40;;;;;;;12.23;57.42;99156.11;125647;1096;103055;-77
2021/06/16 03:26:54;;;;;;;18.47;9.23;;;;;;;12.25;57.48;99147.00;125673;1097;102914;-78
2021/06/16 03:29:32;;;;;;;19.65;8.20;;;;;;;12.28;57.48;99148.59;125637;1097;103047;-79
2021/06/16 03:32:07;;;;;;;21.03;8.30;;;;;;;12.30;57.70;99149.33;125642;1097;102941;-76
2021/06/16 03:34:37;;;;;;;19.13;8.90;;;;;;;12.34;57.87;99151.63;125616;1096;102916;-77
2021/06/16 03:37:10;;;;;;;17.80;8.30;;;;;;;12.41;58.02;99161.81;125594;1097;102942;-78
2021/06/16 03:39:38;;;;;;;24.67;9.37;;;;;;;12.48;57.82;99163.86;125594;1096;103096;-78
2021/06/16 03:42:07;;;;;;;18.13;8.33;;;;;;;12.54;58.13;99162.55;125694;1096;103036;-78
2021/06/16 03:44:38;;;;;;;19.57;8.80;;;;;;;12.61;58.39;99163.76;125694;1097;102936;-78
2021/06/16 03:47:08;;;;;;;18.77;9.07;;;;;;;12.67;58.08;99157.07;125638;1097;103071;-79
2021/06/16 03:49:40;;;;;;;17.93;8.47;;;;;;;12.73;58.01;99158.39;125668;1097;103040;-82
2021/06/16 03:52:09;;;;;;;19.73;8.63;;;;;;;12.78;58.18;99153.53;125683;1097;103009;-81
2021/06/16 03:54:39;;;;;;;20.10;8.40;;;;;;;12.85;58.24;99159.21;125691;1096;103039;-81
2021/06/16 03:57:08;;;;;;;20.73;8.57;;;;;;;12.89;58.25;99158.00;125651;1096;102964;-82
2021/06/16 03:59:37;;;;;;;19.43;9.27;;;;;;;12.94;58.53;99156.67;125676;1096;102941;-81
2021/06/16 04:02:06;;;;;;;20.67;8.93;;;;;;;13.00;58.27;99159.81;125673;1096;102938;-79
2021/06/16 04:04:35;;;;;;;20.20;8.70;;;;;;;13.04;58.67;99154.09;125711;1096;102927;-83
2021/06/16 04:07:05;;;;;;;19.95;9.65;;;;;;;13.10;58.72;99150.92;125672;1096;102921;-78
2021/06/16 04:09:38;;;;;;;20.83;8.90;;;;;;;13.16;58.67;99154.06;125606;1097;103380;-76
2021/06/16 04:12:08;;;;;;;24.00;9.15;;;;;;;13.22;58.80;99150.89;125664;1096;102919;-77
2021/06/16 04:14:38;;;;;;;19.10;9.00;;;;;;;13.28;58.92;99158.38;125683;1096;102926;-78
2021/06/16 04:17:07;;;;;;;21.35;9.10;;;;;;;13.33;58.72;99166.86;125729;1095;102916;-78
2021/06/16 04:19:36;;;;;;;21.40;9.03;;;;;;;13.38;58.67;99161.98;125674;1096;103472;-77
2021/06/16 04:22:04;;;;;;;20.27;9.20;;;;;;;13.44;59.06;99165.16;125509;1096;102954;-78
2021/06/16 04:24:33;;;;;;;18.93;7.93;;;;;;;13.51;59.11;99167.19;125665;1096;103033;-79
2021/06/16 04:27:02;;;;;;;20.70;9.07;;;;;;;13.58;58.91;99166.67;125497;1096;102981;-79
2021/06/16 04:29:32;;;;;;;20.00;9.17;;;;;;;13.65;58.92;99162.52;125685;1096;103162;-78
2021/06/16 04:32:00;;;;;;;19.97;8.90;;;;;;;13.74;59.27;99155.53;125666;1096;102998;-77
2021/06/16 04:34:31;;;;;;;20.77;9.03;;;;;;;13.81;59.01;99156.72;125427;1096;103157;-78
2021/06/16 04:36:59;;;;;;;25.23;9.80;;;;;;;13.89;59.01;99150.70;125637;1096;102937;-77
2021/06/16 04:39:28;;;;;;;21.00;9.30;;;;;;;13.97;59.33;99153.58;125598;1095;103036;-77
2021/06/16 04:41:56;;;;;;;25.23;9.97;;;;;;;14.05;59.23;99153.77;125676;1096;103041;-77
2021/06/16 04:44:25;;;;;;;21.27;9.93;;;;;;;14.11;59.15;99157.73;125637;1096;103188;-78
2021/06/16 04:46:53;;;;;;;21.27;9.50;;;;;;;14.18;59.18;99150.05;125628;1096;103109;-77
2021/06/16 04:49:22;;;;;;;19.73;9.27;;;;;;;14.24;59.23;99152.20;125660;1096;102997;-78
2021/06/16 04:51:52;;;;;;;21.03;9.23;;;;;;;14.30;59.46;99165.02;125668;1096;103055;-78
2021/06/16 04:54:21;;;;;;;22.07;10.07;;;;;;;14.35;59.56;99165.47;125532;1096;102907;-80
2021/06/16 04:56:49;;;;;;;21.07;10.40;;;;;;;14.42;59.36;99166.63;125677;1095;103065;-78
2021/06/16 04:59:18;;;;;;;21.90;10.47;;;;;;;14.54;59.57;99163.87;125649;1096;102968;-78
2021/06/16 05:01:46;;;;;;;22.53;10.20;;;;;;;14.61;59.49;99162.35;125719;1096;103010;-78
2021/06/16 05:04:14;;;;;;;21.10;10.63;;;;;;;14.69;59.54;99159.02;125704;1097;102997;-75
2021/06/16 05:06:43;;;;;;;22.27;9.30;;;;;;;14.75;59.51;99161.16;125674;1097;102951;-76
2021/06/16 05:09:12;;;;;;;20.33;9.40;;;;;;;14.84;59.59;99170.20;125697;1097;103006;-77
2021/06/16 05:11:40;;;;;;;22.40;9.70;;;;;;;14.92;59.60;99169.50;125582;1096;102987;-76
2021/06/16 05:14:10;;;;;;;23.53;9.90;;;;;;;14.97;59.70;99173.48;125629;1094;103525;-77
2021/06/16 05:16:38;;;;;;;26.20;11.50;;;;;;;15.04;59.70;99171.09;125622;1097;103028;-76
2021/06/16 05:19:15;;;;;;;19.13;9.87;;;;;;;15.12;59.68;99181.10;125540;1096;103042;-75
2021/06/16 05:21:46;;;;;;;22.15;10.55;;;;;;;15.23;59.81;99190.88;125689;1097;103383;-76
2021/06/16 05:24:15;;;;;;;21.93;10.37;;;;;;;15.33;59.78;99180.99;125679;1096;103348;-77
2021/06/16 05:26:43;;;;;;;21.93;10.17;;;;;;;15.41;59.79;99186.50;125535;1096;103006;-75
2021/06/16 05:29:12;;;;;;;20.90;9.67;;;;;;;15.51;59.98;99181.14;125649;1097;103421;-75
2021/06/16 05:31:40;;;;;;;20.33;9.33;;;;;;;15.58;59.96;99182.28;125691;1096;102935;-76
2021/06/16 05:34:09;;;;;;;22.27;10.30;;;;;;;15.68;59.84;99182.30;125683;1097;103070;-76
2021/06/16 05:36:38;;;;;;;19.93;9.60;;;;;;;15.80;60.02;99184.81;125626;1096;102991;-76
2021/06/16 05:39:06;;;;;;;21.80;10.10;;;;;;;15.92;59.95;99189.07;125675;1096;102987;-76
2021/06/16 05:41:37;;;;;;;23.10;9.33;;;;;;;16.06;60.01;99185.95;125668;1096;103070;-76
2021/06/16 05:44:06;;;;;;;22.20;10.10;;;;;;;16.26;60.14;99187.74;125685;1096;102942;-75
2021/06/16 05:46:35;;;;;;;21.43;9.83;;;;;;;16.43;60.14;99178.91;125644;1096;102902;-75
2021/06/16 05:49:03;;;;;;;20.93;9.30;;;;;;;16.65;59.97;99179.55;125638;1097;102919;-75
2021/06/16 05:51:32;;;;;;;21.20;9.03;;;;;;;16.85;60.10;99179.44;125680;1095;103071;-76
2021/06/16 05:54:00;;;;;;;19.77;8.73;;;;;;;17.03;60.05;99177.69;125467;1096;103182;-76
2021/06/16 05:56:29;;;;;;;21.53;9.67;;;;;;;17.17;60.08;99186.20;125668;1097;103435;-77
2021/06/16 05:58:58;;;;;;;22.43;9.13;;;;;;;17.27;60.06;99181.63;125661;1095;103140;-79
2021/06/16 06:01:26;;;;;;;18.23;8.63;;;;;;;17.37;60.27;99185.09;125634;1096;103067;-75
2021/06/16 06:03:55;;;;;;;19.83;8.37;;;;;;;17.50;60.25;99187.40;125670;1096;103064;-75
2021/06/16 06:06:24;;;;;;;18.50;7.97;;;;;;;17.63;60.25;99175.41;125640;1096;102940;-75
2021/06/16 06:08:52;;;;;;;19.93;8.33;;;;;;;17.79;59.87;99188.16;125668;1096;102919;-75
2021/06/16 06:11:21;;;;;;;17.77;7.27;;;;;;;17.95;60.06;99182.06;125685;1096;103039;-77
2021/06/16 06:13:49;;;;;;;18.95;7.50;;;;;;;18.13;59.97;99185.60;125652;1096;102939;-76
2021/06/16 06:16:18;;;;;;;19.07;8.10;;;;;;;18.32;59.70;99185.55;125653;1096;103416;-76
2021/06/16 06:18:47;;;;;;;18.40;7.03;;;;;;;18.50;60.07;99190.87;125699;1097;103037;-75
2021/06/16 06:21:16;;;;;;;23.90;8.47;;;;;;;18.67;59.55;99197.18;125480;1096;103083;-76
2021/06/16 06:23:45;;;;;;;18.80;7.60;;;;;;;18.84;59.97;99201.63;125525;1097;103604;-75
2021/06/16 06:26:13;;;;;;;21.47;8.47;;;;;;;19.00;60.08;99202.73;125641;1096;102916;-76
2021/06/16 06:28:43;;;;;;;20.77;8.10;;;;;;;19.17;59.90;99207.16;125677;1095;102981;-76
2021/06/16 06:31:11;;;;;;;21.90;7.83;;;;;;;19.33;59.65;99213.61;125633;1096;103002;-76
2021/06/16 06:33:39;;;;;;;16.20;7.13;;;;;;;19.51;59.71;99210.78;125686;1095;102924;-75
2021/06/16 06:36:08;;;;;;;20.13;7.67;;;;;;;19.71;59.62;99213.18;125679;1094;103000;-75
2021/06/16 06:38:37;;;;;;;20.90;7.80;;;;;;;19.91;59.45;99203.76;125667;1096;103024;-78
2021/06/16 06:41:06;;;;;;;25.47;8.30;;;;;;;20.11;59.47;99210.66;125664;1096;103103;-76
2021/06/16 06:43:35;;;;;;;16.93;6.77;;;;;;;20.33;59.60;99206.42;125670;1094;102996;-77
2021/06/16 06:46:03;;;;;;;21.60;8.30;;;;;;;20.53;59.36;99213.14;125705;1095;103087;-76
2021/06/16 06:48:33;;;;;;;19.10;6.90;;;;;;;20.78;59.37;99204.97;125711;1096;104475;-75
2021/06/16 06:51:01;;;;;;;19.20;7.13;;;;;;;21.03;59.29;99214.84;125715;1096;103072;-75
2021/06/16 06:53:33;;;;;;;16.70;6.60;;;;;;;21.27;59.29;99214.71;125699;1095;102943;-76
2021/06/16 06:56:03;;;;;;;18.33;7.23;;;;;;;21.59;59.34;99205.75;125683;1095;103068;-76
2021/06/16 06:58:32;;;;;;;23.87;7.23;;;;;;;22.03;59.05;99198.82;125747;1096;102916;-76
2021/06/16 07:01:01;;;;;;;18.00;7.40;;;;;;;23.18;57.81;99196.72;125660;1094;101807;-75
2021/06/16 07:03:32;;;;;;;19.80;7.10;;;;;;;25.06;56.93;99198.27;125644;1095;102935;-74
2021/06/16 07:06:01;;;;;;;24.13;6.93;;;;;;;26.80;56.78;99191.27;125629;1095;102951;-74
2021/06/16 07:08:29;;;;;;;16.40;7.47;;;;;;;28.46;56.76;99196.98;125488;1095;102995;-74
2021/06/16 07:10:58;;;;;;;19.57;8.30;;;;;;;29.87;56.25;99197.94;125661;1096;103020;-74
2021/06/16 07:13:26;;;;;;;21.03;11.10;;;;;;;31.26;56.37;99193.93;125642;1096;103161;-75
2021/06/16 07:16:10;;;;;;;17.30;6.43;;;;;;;32.85;55.85;99199.58;125641;1095;102720;-74
2021/06/16 07:18:38;;;;;;;16.57;6.63;;;;;;;34.02;55.56;99197.52;125662;1096;103416;-74
2021/06/16 07:21:07;;;;;;;16.20;6.30;;;;;;;35.10;55.35;99194.59;125497;1096;103003;-75
2021/06/16 07:23:36;;;;;;;18.77;5.80;;;;;;;36.11;54.66;99187.84;125691;1094;103060;-75
2021/06/16 07:26:04;;;;;;;17.63;6.03;;;;;;;37.11;54.49;99198.41;125603;1095;102923;-76
2021/06/16 07:28:33;;;;;;;17.93;7.03;;;;;;;38.03;53.64;99205.30;125635;1097;103077;-75
2021/06/16 07:31:03;;;;;;;15.60;6.10;;;;;;;38.72;52.71;99202.39;125711;1095;103000;-73
2021/06/16 07:33:31;;;;;;;13.63;5.77;;;;;;;39.38;52.19;99212.98;125662;1096;102945;-76
2021/06/16 07:36:00;;;;;;;14.27;5.93;;;;;;;39.71;51.33;99204.72;125512;1096;103019;-74
2021/06/16 07:38:29;;;;;;;15.77;6.60;;;;;;;40.21;50.56;99206.11;125556;1097;102945;-75
2021/06/16 07:40:57;;;;;;;14.53;5.87;;;;;;;40.44;49.77;99209.89;125620;1095;103083;-75
2021/06/16 07:43:26;;;;;;;16.70;6.27;;;;;;;40.75;48.89;99203.77;125665;1096;103048;-74
2021/06/16 07:45:54;;;;;;;15.17;6.37;;;;;;;41.02;48.21;99212.38;125648;1097;102921;-75
2021/06/16 07:48:22;;;;;;;14.43;5.73;;;;;;;41.15;47.02;99203.20;125686;1097;102971;-74
2021/06/16 07:50:51;;;;;;;15.00;5.70;;;;;;;41.16;46.09;99207.65;125669;1095;103003;-75
2021/06/16 07:53:20;;;;;;;13.55;5.70;;;;;;;41.21;45.78;99215.91;125640;1096;103063;-75
2021/06/16 07:55:49;;;;;;;12.73;5.13;;;;;;;41.36;45.00;99211.13;125693;1096;102936;-74
2021/06/16 07:58:17;;;;;;;15.40;6.03;;;;;;;41.70;44.04;99217.33;125658;1094;102916;-75
2021/06/16 08:00:46;;;;;;;11.93;5.70;;;;;;;42.11;43.50;99219.11;125671;1096;102919;-74
2021/06/16 08:03:15;;;;;;;11.75;5.10;;;;;;;42.44;42.78;99216.02;125686;1095;103038;-74
2021/06/16 08:05:43;;;;;;;10.47;5.23;;;;;;;42.35;41.71;99213.17;125649;1095;103055;-75
2021/06/16 08:08:32;;;;;;;11.80;5.20;;;;;;;42.40;41.40;99215.02;125651;1096;103076;-76
2021/06/16 08:11:01;;;;;;;12.27;5.40;;;;;;;42.62;40.58;99221.70;125657;1095;103071;-73
2021/06/16 08:13:32;;;;;;;16.27;6.30;;;;;;;42.62;39.90;99219.72;125697;1094;102916;-75
2021/06/16 08:16:00;;;;;;;11.37;5.17;;;;;;;42.57;39.39;99224.64;125711;1094;103029;-74
2021/06/16 08:18:30;;;;;;;13.40;5.60;;;;;;;42.69;38.57;99231.26;125721;1095;102916;-75
2021/06/16 08:20:59;;;;;;;15.17;5.37;;;;;;;42.67;37.74;99219.57;125577;1095;102998;-74
2021/06/16 08:23:27;;;;;;;12.23;5.00;;;;;;;42.65;37.41;99230.25;125510;1096;103025;-74
2021/06/16 08:25:56;;;;;;;11.17;4.40;;;;;;;42.66;36.79;99231.09;125460;1096;102998;-75
2021/06/16 08:28:24;;;;;;;6.93;3.70;;;;;;;42.56;36.32;99232.21;125566;1095;103029;-75
2021/06/16 08:30:53;;;;;;;7.73;3.60;;;;;;;42.51;35.65;99233.16;125630;1096;102937;-75
2021/06/16 08:33:21;;;;;;;10.23;3.97;;;;;;;42.50;35.13;99236.30;125670;1096;103073;-75
2021/06/16 08:35:49;;;;;;;11.30;4.67;;;;;;;42.27;34.39;99232.69;125645;1096;103020;-74
2021/06/16 08:38:18;;;;;;;13.93;4.67;;;;;;;41.61;33.78;99237.62;125664;1096;102994;-74
2021/06/16 08:40:46;;;;;;;10.90;4.73;;;;;;;40.70;32.64;99239.26;125624;1096;103058;-74
2021/06/16 08:43:15;;;;;;;9.23;4.47;;;;;;;40.18;32.97;99238.20;125624;1095;102984;-76
2021/06/16 08:45:43;;;;;;;9.57;4.90;;;;;;;40.38;32.48;99233.41;125652;1096;103185;-76
2021/06/16 08:48:12;;;;;;;12.00;4.47;;;;;;;40.68;32.42;99235.95;125651;1096;102955;-76
2021/06/16 08:50:40;;;;;;;9.83;4.97;;;;;;;40.84;32.06;99233.68;125674;1094;103059;-77
2021/06/16 08:53:09;;;;;;;13.17;4.80;;;;;;;40.98;31.76;99233.66;125668;1096;103090;-76
2021/06/16 08:55:37;;;;;;;9.27;4.43;;;;;;;41.05;31.67;99234.92;125627;1095;103029;-76
2021/06/16 08:58:06;;;;;;;10.37;4.13;;;;;;;40.99;30.73;99229.74;125612;1096;103056;-74
2021/06/16 09:00:34;;;;;;;10.93;4.07;;;;;;;40.87;30.98;99231.11;125686;1096;102942;-75
2021/06/16 09:03:03;;;;;;;13.40;4.70;;;;;;;40.78;30.68;99228.20;125618;1095;103012;-74
2021/06/16 09:05:36;;;;;;;10.83;4.30;;;;;;;40.54;30.06;99225.61;125632;1095;103026;-74
2021/06/16 09:08:20;;;;;;;9.37;4.00;;;;;;;40.61;29.67;99220.42;125617;1095;103060;-75
2021/06/16 09:10:57;;;;;;;9.25;4.20;;;;;;;40.40;29.40;99222.78;125696;1094;103032;-75
2021/06/16 09:13:28;;;;;;;9.73;3.80;;;;;;;40.18;29.03;99226.22;125669;1096;103003;-75
2021/06/16 09:15:58;;;;;;;8.13;4.17;;;;;;;39.94;29.28;99226.38;125723;1097;103035;-75
2021/06/16 09:18:41;;;;;;;8.50;3.93;;;;;;;39.86;28.95;99225.09;125713;1095;102920;-75
2021/06/16 09:21:10;;;;;;;11.70;4.03;;;;;;;39.78;28.68;99223.84;125631;1096;103057;-75
2021/06/16 09:23:43;;;;;;;8.43;3.73;;;;;;;39.59;28.21;99216.29;125667;1096;102933;-74
2021/06/16 09:26:13;;;;;;;9.33;3.70;;;;;;;39.13;27.32;99223.33;125661;1096;103392;-76
2021/06/16 09:28:44;;;;;;;8.93;3.30;;;;;;;37.92;27.36;99231.48;125709;1095;102908;-73
2021/06/16 09:31:15;;;;;;;6.70;3.80;;;;;;;37.85;27.62;99236.53;125664;1095;102945;-75
2021/06/16 09:33:44;;;;;;;9.27;4.27;;;;;;;37.58;27.48;99235.04;125630;1095;102930;-73
2021/06/16 09:36:16;;;;;;;7.17;3.90;;;;;;;37.06;26.57;99233.35;125656;1094;103007;-73
2021/06/16 09:38:49;;;;;;;5.40;3.60;;;;;;;35.91;26.36;99230.98;125619;1096;102990;-74
2021/06/16 09:41:23;;;;;;;10.73;4.38;;;;;;;35.53;26.72;99228.47;125688;1096;103031;-73
2021/06/16 09:43:56;;;;;;;6.93;4.10;;;;;;;35.61;26.81;99229.86;125684;1096;103068;-73
2021/06/16 09:46:25;;;;;;;11.57;4.30;;;;;;;35.66;26.48;99232.64;125674;1096;103076;-73
2021/06/16 09:48:53;;;;;;;9.60;4.00;;;;;;;35.85;26.75;99235.70;125688;1096;102976;-73
2021/06/16 09:51:29;;;;;;;10.50;4.30;;;;;;;35.96;26.92;99230.17;125646;1096;103021;-74
2021/06/16 09:53:58;;;;;;;7.57;3.70;;;;;;;35.95;26.79;99226.56;125691;1096;103537;-75
2021/06/16 09:56:29;;;;;;;11.40;4.60;;;;;;;35.96;26.67;99228.22;125691;1095;102919;-74
2021/06/16 09:58:59;;;;;;;9.70;4.00;;;;;;;35.88;26.48;99231.53;125631;1096;103034;-74
2021/06/16 10:01:46;;;;;;;10.20;4.40;;;;;;;35.64;26.39;99228.50;125654;1094;103540;-72
2021/06/16 10:04:43;;;;;;;14.90;5.23;;;;;;;34.49;24.94;99229.06;125685;1095;102939;-72
2021/06/16 10:07:16;;;;;;;12.37;5.03;;;;;;;32.95;25.93;99228.08;125719;1095;103630;-74
2021/06/16 10:10:00;;;;;;;10.35;4.25;;;;;;;32.65;25.86;99233.97;125724;1095;102997;-75
2021/06/16 10:12:28;;;;;;;13.43;4.50;;;;;;;32.24;26.14;99225.92;125678;1095;102939;-72
2021/06/16 10:15:00;;;;;;;12.00;4.27;;;;;;;32.11;26.14;99229.84;125671;1096;103036;-72
2021/06/16 10:17:28;;;;;;;9.77;3.97;;;;;;;31.97;26.20;99234.00;125690;1096;103351;-71
2021/06/16 10:19:57;;;;;;;11.37;3.90;;;;;;;31.66;25.85;99234.25;125686;1095;103018;-71
2021/06/16 10:22:26;;;;;;;12.63;4.53;;;;;;;31.36;26.07;99224.36;125675;1095;103087;-72
2021/06/16 10:24:55;;;;;;;8.53;3.93;;;;;;;31.24;26.25;99229.91;125643;1096;103100;-70
2021/06/16 10:27:27;;;;;;;10.23;4.03;;;;;;;31.08;26.13;99236.12;125641;1095;103044;-70
2021/06/16 10:30:06;;;;;;;10.27;4.57;;;;;;;30.92;26.09;99229.47;125648;1095;102945;-73
2021/06/16 10:32:46;;;;;;;7.90;3.80;;;;;;;30.79;26.43;99220.41;125669;1095;102924;-72
2021/06/16 10:35:40;;;;;;;9.37;4.07;;;;;;;30.60;26.47;99225.21;125696;1094;102949;-72
2021/06/16 10:38:18;;;;;;;10.27;4.03;;;;;;;30.32;26.22;99220.44;125590;1095;103408;-74
2021/06/16 10:40:53;;;;;;;8.57;3.77;;;;;;;30.17;26.74;99218.14;125663;1096;102923;-71
2021/06/16 10:43:41;;;;;;;13.55;4.80;;;;;;;30.06;26.53;99212.42;125656;1095;103091;-71
2021/06/16 10:46:16;;;;;;;10.13;4.00;;;;;;;30.07;26.88;99216.84;125715;1094;102997;-73
2021/06/16 10:48:55;;;;;;;6.40;3.50;;;;;;;29.95;27.36;99225.02;125715;1095;102973;-72
2021/06/16 10:51:31;;;;;;;10.90;4.07;;;;;;;29.77;27.36;99214.94;125618;1095;103589;-72
2021/06/16 10:54:24;;;;;;;10.97;3.93;;;;;;;29.53;27.23;99220.36;125682;1095;103015;-73
2021/06/16 10:56:55;;;;;;;8.47;3.70;;;;;;;29.36;27.02;99222.89;125637;1095;102924;-74
2021/06/16 10:59:42;;;;;;;8.80;4.40;;;;;;;29.25;27.06;99220.92;125655;1095;102916;-72
2021/06/16 11:02:15;;;;;;;14.17;4.47;;;;;;;29.21;27.09;99219.71;125643;1096;103035;-71
2021/06/16 11:04:45;;;;;;;11.67;4.17;;;;;;;29.15;27.76;99223.36;125640;1095;102998;-72
2021/06/16 11:07:32;;;;;;;12.57;4.20;;;;;;;29.19;27.93;99216.36;125697;1095;103071;-73
2021/06/16 11:10:06;;;;;;;12.53;4.03;;;;;;;29.17;27.81;99216.61;125658;1095;103001;-73
2021/06/16 11:12:39;;;;;;;8.83;4.23;;;;;;;29.17;27.96;99223.97;125667;1094;103115;-73
2021/06/16 11:15:09;;;;;;;12.00;4.48;;;;;;;29.08;28.18;99216.09;125667;1096;102921;-73
2021/06/16 11:17:43;;;;;;;9.93;4.43;;;;;;;29.04;27.84;99223.09;125683;1095;102946;-73
2021/06/16 11:20:19;;;;;;;15.40;4.53;;;;;;;29.05;28.34;99215.70;125691;1096;103019;-71
2021/06/16 11:22:55;;;;;;;10.23;4.60;;;;;;;29.04;28.34;99220.36;125639;1097;103044;-72
2021/06/16 11:25:28;;;;;;;10.33;4.43;;;;;;;29.02;28.59;99218.89;125690;1095;102949;-72
2021/06/16 11:28:17;;;;;;;9.67;3.93;;;;;;;28.81;28.72;99215.58;125680;1096;102965;-73